Time;durP1;ratioP1;P1;durP2;ratioP2;P2;SDS_P1;SDS_P2;PMS_P1;PMS_P2;Temp;Humidity;BMP_temperature;BMP_pressure;BME280_temperature;BME280_humidity;BME280_pressure;Samples;Min_cycle;Max_cycle;Signal;HPM_P1;HPM_P2
2023/01/29 00:00:53;;;;;;;;;;;;;;;18.39;54.73;102014.11;2259574;76;51006;-72
2023/01/29 00:03:54;;;;;;;;;;;;;;;18.33;54.83;102009.36;2320063;76;51474;-71
2023/01/29 00:06:56;;;;;;;;;;;;;;;18.27;54.89;102000.92;2286452;76;51848;-72
2023/01/29 00:09:58;;;;;;;;;;;;;;;18.26;55.01;101994.36;2286442;76;51449;-72
2023/01/29 00:12:59;;;;;;;;;;;;;;;18.28;54.99;102002.59;2285893;76;51121;-72
2023/01/29 00:16:01;;;;;;;;;;;;;;;18.33;54.94;102004.84;2286655;76;50136;-72
2023/01/29 00:19:03;;;;;;;;;;;;;;;18.36;54.91;101996.49;2320314;76;51661;-72
2023/01/29 00:22:04;;;;;;;;;;;;;;;18.39;54.84;102001.55;2320088;76;51574;-72
2023/01/29 00:25:06;;;;;;;;;;;;;;;18.45;54.83;102003.66;2261388;76;52525;-72
2023/01/29 00:28:08;;;;;;;;;;;;;;;18.50;54.76;102001.88;2284677;76;50432;-72
2023/01/29 00:31:10;;;;;;;;;;;;;;;18.57;54.71;101992.72;2298403;77;51467;-72
2023/01/29 00:34:12;;;;;;;;;;;;;;;18.61;54.60;101995.45;2313775;77;50751;-72
2023/01/29 00:37:13;;;;;;;;;;;;;;;18.63;54.55;101995.66;2291795;77;52640;-72
2023/01/29 00:40:15;;;;;;;;;;;;;;;18.60;54.59;101993.75;2318061;76;51508;-71
2023/01/29 00:46:36;;;;;;;;;;;;;;;18.48;54.74;101969.84;2317735;76;24386;-72
2023/01/29 00:49:38;;;;;;;;;;;;;;;18.41;54.85;101959.37;2291806;77;50987;-72
2023/01/29 00:52:42;;;;;;;;;;;;;;;18.37;54.92;101963.36;2317846;76;50418;-73
2023/01/29 00:55:44;;;;;;;;;;;;;;;18.31;55.02;101961.27;2313912;77;51466;-72
2023/01/29 00:58:45;;;;;;;;;;;;;;;18.29;55.12;101965.95;2311744;76;49632;-72
2023/01/29 01:05:09;;;;;;;;;;;;;;;18.35;55.16;101964.00;2320694;76;22465;-72
2023/01/29 01:11:30;;;;;;;;;;;;;;;18.45;54.96;101967.47;2320690;76;24406;-72
2023/01/29 01:14:33;;;;;;;;;;;;;;;18.49;54.86;101972.02;2285920;76;52667;-72
2023/01/29 01:17:35;;;;;;;;;;;;;;;18.50;54.78;101967.87;2287058;76;22390;-72
2023/01/29 01:20:36;;;;;;;;;;;;;;;18.55;54.69;101963.88;2286402;76;51530;-72
2023/01/29 01:23:38;;;;;;;;;;;;;;;18.57;54.66;101960.55;2319985;76;51517;-72
2023/01/29 01:26:39;;;;;;;;;;;;;;;18.60;54.56;101970.97;2260948;76;50924;-73
2023/01/29 01:29:41;;;;;;;;;;;;;;;18.64;54.48;101965.66;2265818;77;50636;-72
2023/01/29 01:32:43;;;;;;;;;;;;;;;18.68;54.44;101968.40;2281128;78;51440;-72
2023/01/29 01:35:44;;;;;;;;;;;;;;;18.64;54.48;101959.80;2281278;78;51541;-72
2023/01/29 01:38:46;;;;;;;;;;;;;;;18.61;54.54;101963.28;2248378;78;50879;-72
2023/01/29 01:41:47;;;;;;;;;;;;;;;18.58;54.64;101960.91;2281337;78;50260;-72
2023/01/29 01:45:00;;;;;;;;;;;;;;;18.52;54.73;101967.70;2281055;78;50365;-72
2023/01/29 01:48:15;;;;;;;;;;;;;;;18.46;54.82;101964.29;2281413;78;50858;-73
2023/01/29 01:51:17;;;;;;;;;;;;;;;18.41;54.96;101967.91;2212769;78;51297;-72
2023/01/29 01:54:20;;;;;;;;;;;;;;;18.35;55.16;101971.20;2281022;78;50739;-73
2023/01/29 01:57:23;;;;;;;;;;;;;;;18.34;55.63;101974.86;2279921;78;50798;-72
2023/01/29 02:00:25;;;;;;;;;;;;;;;18.37;55.52;101972.74;2291974;76;51661;-72
2023/01/29 02:10:07;;;;;;;;;;;;;;;18.52;55.18;101958.31;2281754;78;22339;-72
2023/01/29 02:13:08;;;;;;;;;;;;;;;18.57;55.07;101948.48;2281050;78;50213;-72
2023/01/29 02:16:10;;;;;;;;;;;;;;;18.60;54.95;101949.52;2248428;78;49297;-73
2023/01/29 02:19:16;;;;;;;;;;;;;;;18.65;54.85;101940.05;2248636;78;50629;-72
2023/01/29 02:22:21;;;;;;;;;;;;;;;18.67;54.78;101941.22;2281623;78;51542;-72
2023/01/29 02:25:28;;;;;;;;;;;;;;;18.65;54.79;101941.87;2281116;78;51580;-73
2023/01/29 02:28:37;;;;;;;;;;;;;;;18.61;54.82;101940.00;2247577;77;51308;-72
2023/01/29 02:31:40;;;;;;;;;;;;;;;18.57;54.92;101932.41;2304245;76;51663;-72
2023/01/29 02:38:34;;;;;;;;;;;;;;;18.45;55.12;101933.13;2281671;78;22445;-73
2023/01/29 02:41:40;;;;;;;;;;;;;;;18.38;55.22;101939.58;2281268;76;50732;-72
2023/01/29 02:44:43;;;;;;;;;;;;;;;18.33;55.31;101940.52;2270669;77;50793;-71
2023/01/29 02:47:46;;;;;;;;;;;;;;;18.34;55.36;101940.02;2281299;78;51537;-73
2023/01/29 02:50:55;;;;;;;;;;;;;;;18.36;55.40;101937.54;2281583;78;50842;-73
2023/01/29 02:54:01;;;;;;;;;;;;;;;18.39;55.41;101939.91;2251692;78;51736;-73
2023/01/29 02:57:13;;;;;;;;;;;;;;;18.42;55.31;101936.95;2281439;78;50178;-72
2023/01/29 03:00:15;;;;;;;;;;;;;;;18.46;55.22;101924.09;2285498;77;22406;-73
2023/01/29 03:03:24;;;;;;;;;;;;;;;18.50;55.14;101914.77;2310652;77;51447;-73
2023/01/29 03:06:32;;;;;;;;;;;;;;;18.55;55.09;101912.94;2321391;76;51211;-72
2023/01/29 03:09:35;;;;;;;;;;;;;;;18.58;55.00;101914.84;2318074;76;51588;-73
2023/01/29 03:12:37;;;;;;;;;;;;;;;18.63;54.91;101917.08;2313700;76;52206;-73
2023/01/29 03:15:41;;;;;;;;;;;;;;;18.66;54.82;101914.08;2314173;76;51513;-73
2023/01/29 03:18:45;;;;;;;;;;;;;;;18.67;54.74;101914.41;2321669;76;51829;-72
2023/01/29 03:21:59;;;;;;;;;;;;;;;18.67;54.75;101914.41;2314100;77;51732;-72
2023/01/29 03:35:00;;;;;;;;;;;;;;;18.45;55.06;101899.13;2253970;78;22330;-73
2023/01/29 03:38:02;;;;;;;;;;;;;;;18.40;55.13;101904.60;2281354;78;51499;-72
2023/01/29 03:41:05;;;;;;;;;;;;;;;18.35;55.18;101892.99;2281433;78;51570;-72
2023/01/29 03:44:08;;;;;;;;;;;;;;;18.34;55.27;101886.43;2248293;78;52556;-72
2023/01/29 03:47:18;;;;;;;;;;;;;;;18.37;55.21;101887.46;2281250;77;51592;-72
2023/01/29 03:50:36;;;;;;;;;;;;;;;18.40;55.19;101881.32;2281402;78;51677;-72
2023/01/29 03:53:48;;;;;;;;;;;;;;;18.43;55.10;101871.63;2281265;78;51516;-72
2023/01/29 03:56:57;;;;;;;;;;;;;;;18.46;55.02;101868.64;2248415;78;51749;-73
2023/01/29 04:00:00;;;;;;;;;;;;;;;18.50;54.95;101866.02;2292139;77;51596;-71
2023/01/29 04:03:12;;;;;;;;;;;;;;;18.55;54.89;101852.63;2307580;77;51507;-72
2023/01/29 04:06:18;;;;;;;;;;;;;;;18.60;54.78;101846.31;2313588;76;51478;-72
2023/01/29 04:09:22;;;;;;;;;;;;;;;18.64;54.70;101841.84;2291526;77;49647;-72
2023/01/29 04:12:28;;;;;;;;;;;;;;;18.68;54.60;101835.69;2313304;76;50827;-72
2023/01/29 04:15:30;;;;;;;;;;;;;;;18.65;54.59;101826.59;2313886;76;52092;-73
2023/01/29 04:18:32;;;;;;;;;;;;;;;18.61;54.65;101820.70;2313979;77;50749;-72
2023/01/29 04:21:36;;;;;;;;;;;;;;;18.56;54.77;101817.65;2317961;76;51231;-72
2023/01/29 04:24:37;;;;;;;;;;;;;;;18.52;54.90;101812.74;2313937;76;22455;-72
2023/01/29 04:27:40;;;;;;;;;;;;;;;18.47;55.00;101803.34;2313724;77;50703;-72
2023/01/29 04:30:53;;;;;;;;;;;;;;;18.41;55.06;101803.11;2298789;76;50323;-72
2023/01/29 04:34:13;;;;;;;;;;;;;;;18.36;55.13;101808.91;2291336;77;51147;-74
2023/01/29 04:37:22;;;;;;;;;;;;;;;18.35;55.22;101800.55;2313894;77;51428;-72
2023/01/29 04:40:30;;;;;;;;;;;;;;;18.40;55.18;101795.57;2313419;76;50366;-72
2023/01/29 04:43:36;;;;;;;;;;;;;;;18.43;55.12;101788.56;2313667;77;50394;-71
2023/01/29 04:46:39;;;;;;;;;;;;;;;18.48;55.02;101790.27;2291464;77;51080;-72
2023/01/29 04:49:49;;;;;;;;;;;;;;;18.52;54.99;101791.30;2313857;76;51455;-72
2023/01/29 04:53:01;;;;;;;;;;;;;;;18.56;54.92;101798.05;2291474;77;52477;-73
2023/01/29 04:56:10;;;;;;;;;;;;;;;18.57;54.91;101800.55;2313749;76;51449;-72
2023/01/29 04:59:12;;;;;;;;;;;;;;;18.60;54.83;101802.08;2285635;76;50972;-73
2023/01/29 05:02:14;;;;;;;;;;;;;;;18.63;54.78;101801.80;2303602;76;50652;-73
2023/01/29 05:05:16;;;;;;;;;;;;;;;18.63;54.76;101799.13;2317888;76;51424;-73
2023/01/29 05:08:19;;;;;;;;;;;;;;;18.67;54.70;101796.45;2314093;76;50674;-73
2023/01/29 05:11:20;;;;;;;;;;;;;;;18.68;54.66;101791.45;2318063;76;50238;-73
2023/01/29 05:14:22;;;;;;;;;;;;;;;18.68;54.57;101800.84;2313831;77;50307;-73
2023/01/29 05:17:24;;;;;;;;;;;;;;;18.64;54.66;101811.52;2313996;77;50190;-73
2023/01/29 05:20:25;;;;;;;;;;;;;;;18.58;54.71;101796.06;2318161;76;51515;-73
2023/01/29 05:23:27;;;;;;;;;;;;;;;18.52;54.79;101796.16;2317928;76;51163;-73
2023/01/29 05:29:48;;;;;;;;;;;;;;;18.41;54.95;101809.30;2305630;77;22305;-73
2023/01/29 05:32:50;;;;;;;;;;;;;;;18.36;54.99;101808.91;2264197;78;51919;-73
2023/01/29 05:35:51;;;;;;;;;;;;;;;18.37;55.11;101798.56;2211573;78;52916;-72
2023/01/29 05:38:53;;;;;;;;;;;;;;;18.42;55.05;101804.30;2248736;78;53673;-72
2023/01/29 05:41:54;;;;;;;;;;;;;;;18.47;55.00;101806.50;2248560;78;51448;-72
2023/01/29 05:44:56;;;;;;;;;;;;;;;18.53;54.86;101803.72;2281336;78;50654;-72
2023/01/29 05:47:58;;;;;;;;;;;;;;;18.57;54.89;101807.76;2211206;78;51194;-73
2023/01/29 05:51:02;;;;;;;;;;;;;;;18.61;54.77;101808.64;2248798;78;51509;-72
2023/01/29 05:54:04;;;;;;;;;;;;;;;18.65;54.61;101809.16;2281263;78;50276;-72
2023/01/29 05:57:06;;;;;;;;;;;;;;;18.68;54.59;101809.72;2248623;78;50271;-72
2023/01/29 06:00:08;;;;;;;;;;;;;;;18.71;54.51;101820.63;2255694;78;51171;-75
2023/01/29 06:03:09;;;;;;;;;;;;;;;18.70;54.49;101816.24;2232257;78;51512;-75
2023/01/29 06:06:11;;;;;;;;;;;;;;;18.68;54.61;101816.92;2264124;77;51557;-72
2023/01/29 06:09:13;;;;;;;;;;;;;;;18.63;54.57;101819.22;2263981;77;51495;-73
2023/01/29 06:12:14;;;;;;;;;;;;;;;18.57;54.57;101831.88;2205784;78;52556;-74
2023/01/29 06:15:18;;;;;;;;;;;;;;;18.51;54.58;101832.01;2229470;78;50717;-72
2023/01/29 06:18:19;;;;;;;;;;;;;;;18.44;54.61;101838.47;2230536;78;22454;-73
2023/01/29 06:21:21;;;;;;;;;;;;;;;18.39;54.67;101832.72;2230218;78;50678;-72
2023/01/29 06:24:22;;;;;;;;;;;;;;;18.37;54.62;101836.08;2229492;78;51063;-73
2023/01/29 06:27:24;;;;;;;;;;;;;;;18.42;54.55;101832.45;2229544;78;51565;-73
2023/01/29 06:30:27;;;;;;;;;;;;;;;18.46;54.45;101831.13;2251851;78;50203;-73
2023/01/29 06:33:28;;;;;;;;;;;;;;;18.51;54.32;101834.69;2281562;78;50843;-73
2023/01/29 06:36:30;;;;;;;;;;;;;;;18.58;54.17;101820.19;2223586;78;52355;-73
2023/01/29 06:39:31;;;;;;;;;;;;;;;18.61;54.07;101825.23;2281827;78;51292;-73
2023/01/29 06:42:36;;;;;;;;;;;;;;;18.65;53.96;101825.25;2281824;77;50382;-73
2023/01/29 06:45:38;;;;;;;;;;;;;;;18.69;53.86;101826.63;2249587;78;51532;-73
2023/01/29 06:48:39;;;;;;;;;;;;;;;18.71;53.72;101809.91;2248907;78;52373;-73
2023/01/29 06:51:41;;;;;;;;;;;;;;;18.77;53.61;101833.43;2249187;78;50694;-73
2023/01/29 06:54:42;;;;;;;;;;;;;;;18.76;53.52;101841.65;2248491;78;50216;-73
2023/01/29 06:57:44;;;;;;;;;;;;;;;18.71;53.58;101832.19;2281233;78;50239;-73
2023/01/29 07:00:45;;;;;;;;;;;;;;;18.67;53.60;101832.14;2252064;76;50665;-72
2023/01/29 07:03:49;;;;;;;;;;;;;;;18.63;53.68;101827.27;2320072;76;51475;-73
2023/01/29 07:06:50;;;;;;;;;;;;;;;18.56;53.78;101840.43;2286835;76;51529;-72
2023/01/29 07:09:52;;;;;;;;;;;;;;;18.50;53.85;101829.83;2320735;76;51533;-72
2023/01/29 07:12:54;;;;;;;;;;;;;;;18.45;53.91;101821.91;2242259;76;52378;-72
2023/01/29 07:15:59;;;;;;;;;;;;;;;18.44;53.93;101823.73;2263707;78;50251;-72
2023/01/29 07:19:00;;;;;;;;;;;;;;;18.46;53.89;101829.78;2281534;78;52355;-72
2023/01/29 07:22:02;;;;;;;;;;;;;;;18.52;53.76;101824.30;2281241;78;50632;-72
2023/01/29 07:25:04;;;;;;;;;;;;;;;18.60;53.63;101816.83;2248788;78;51175;-72
2023/01/29 07:28:06;;;;;;;;;;;;;;;18.64;53.52;101815.03;2248921;78;50266;-72
2023/01/29 07:31:08;;;;;;;;;;;;;;;18.72;53.33;101824.98;2281356;78;50395;-72
2023/01/29 07:34:09;;;;;;;;;;;;;;;18.75;53.27;101830.06;2281189;78;50297;-72
2023/01/29 07:37:11;;;;;;;;;;;;;;;18.76;53.28;101833.10;2248485;78;50617;-72
2023/01/29 07:40:12;;;;;;;;;;;;;;;18.74;53.27;101828.35;2248705;78;50249;-73
2023/01/29 07:43:15;;;;;;;;;;;;;;;18.70;53.32;101825.63;2256417;78;50185;-73
2023/01/29 07:46:16;;;;;;;;;;;;;;;18.66;53.41;101826.95;2281351;78;51667;-73
2023/01/29 07:49:18;;;;;;;;;;;;;;;18.61;53.48;101812.66;2281356;78;51457;-73
2023/01/29 07:52:20;;;;;;;;;;;;;;;18.56;53.59;101806.09;2248412;78;50973;-73
2023/01/29 07:55:21;;;;;;;;;;;;;;;18.49;53.68;101804.00;2282233;76;50318;-73
2023/01/29 07:58:23;;;;;;;;;;;;;;;18.45;53.74;101783.89;2297625;76;50180;-73
2023/01/29 08:01:24;;;;;;;;;;;;;;;18.46;53.75;101778.86;2276925;76;50736;-73
2023/01/29 08:04:26;;;;;;;;;;;;;;;18.50;53.73;101788.80;2290046;76;50639;-72
2023/01/29 08:07:27;;;;;;;;;;;;;;;18.56;53.62;101792.18;2239014;78;52502;-73
2023/01/29 08:10:29;;;;;;;;;;;;;;;18.60;53.49;101802.95;2248672;78;51470;-72
2023/01/29 08:13:31;;;;;;;;;;;;;;;18.63;53.43;101790.58;2254907;78;51443;-73
2023/01/29 08:16:32;;;;;;;;;;;;;;;18.68;53.31;101781.56;2248026;78;51944;-73
2023/01/29 08:19:34;;;;;;;;;;;;;;;18.71;53.26;101777.73;2281424;77;51471;-73
2023/01/29 08:22:36;;;;;;;;;;;;;;;18.71;53.24;101779.91;2281212;78;51503;-73
2023/01/29 08:25:37;;;;;;;;;;;;;;;18.75;53.19;101783.13;2281631;78;50252;-73
2023/01/29 08:28:39;;;;;;;;;;;;;;;18.76;53.19;101787.52;2249105;78;49567;-74
2023/01/29 08:31:40;;;;;;;;;;;;;;;18.74;53.18;101781.94;2227070;78;50401;-74
2023/01/29 08:34:42;;;;;;;;;;;;;;;18.67;53.28;101775.84;2282853;78;50748;-73
2023/01/29 08:37:43;;;;;;;;;;;;;;;18.63;53.35;101783.03;2248821;76;51869;-72
2023/01/29 08:40:45;;;;;;;;;;;;;;;18.57;53.45;101770.23;2259475;76;52719;-72
2023/01/29 08:43:47;;;;;;;;;;;;;;;18.50;53.55;101776.23;2257420;76;51426;-71
2023/01/29 08:46:48;;;;;;;;;;;;;;;18.47;53.61;101779.22;2264109;76;51547;-71
2023/01/29 08:49:50;;;;;;;;;;;;;;;18.45;53.61;101777.19;2262931;76;50427;-71
2023/01/29 08:52:51;;;;;;;;;;;;;;;18.47;53.61;101783.72;2238203;76;51295;-71
2023/01/29 08:55:53;;;;;;;;;;;;;;;18.52;53.53;101776.56;2306963;76;50450;-71
2023/01/29 08:58:54;;;;;;;;;;;;;;;18.57;53.40;101783.13;2313247;76;50299;-73
2023/01/29 09:01:56;;;;;;;;;;;;;;;18.62;53.49;101785.35;2266060;76;50372;-74
2023/01/29 09:04:58;;;;;;;;;;;;;;;18.64;53.72;101772.64;2271198;76;49599;-75
2023/01/29 09:07:59;;;;;;;;;;;;;;;18.69;53.87;101770.34;2300371;76;50325;-74
2023/01/29 09:11:01;;;;;;;;;;;;;;;18.75;53.91;101766.18;2299825;77;50342;-71
2023/01/29 09:14:02;;;;;;;;;;;;;;;18.76;53.96;101770.09;2299441;76;50738;-71
2023/01/29 09:17:04;;;;;;;;;;;;;;;18.76;53.99;101760.70;2294728;76;51514;-71
2023/01/29 09:20:06;;;;;;;;;;;;;;;18.75;54.18;101776.43;2304338;76;51625;-71
2023/01/29 09:23:08;;;;;;;;;;;;;;;18.71;54.29;101772.37;2288253;77;50313;-71
2023/01/29 09:26:09;;;;;;;;;;;;;;;18.66;54.44;101765.29;2254209;76;51552;-69
2023/01/29 09:29:11;;;;;;;;;;;;;;;18.58;54.68;101763.89;2309311;76;52297;-69
2023/01/29 09:32:12;;;;;;;;;;;;;;;18.52;54.90;101771.20;2309194;76;50507;-71
2023/01/29 09:35:14;;;;;;;;;;;;;;;18.47;55.19;101765.83;2299093;76;50639;-71
2023/01/29 09:38:16;;;;;;;;;;;;;;;18.53;54.99;101768.87;2299568;76;51641;-71
2023/01/29 09:41:31;;;;;;;;;;;;;;;18.55;55.02;101760.16;2289856;76;52495;-72
2023/01/29 09:44:53;;;;;;;;;;;;;;;18.61;54.92;101759.56;2280834;76;50794;-73
2023/01/29 09:47:58;;;;;;;;;;;;;;;18.70;54.77;101756.78;2301569;76;51544;-74
2023/01/29 09:51:00;;;;;;;;;;;;;;;18.80;54.44;101744.63;2308598;76;51564;-72
2023/01/29 09:54:03;;;;;;;;;;;;;;;18.85;54.31;101737.45;2279743;76;49853;-72
2023/01/29 09:57:07;;;;;;;;;;;;;;;18.91;54.51;101729.63;2285844;78;50349;-76
2023/01/29 10:00:10;;;;;;;;;;;;;;;18.91;54.54;101732.81;2282407;78;50681;-74
2023/01/29 10:03:30;;;;;;;;;;;;;;;18.90;54.60;101724.41;2281446;78;51547;-74
2023/01/29 10:06:40;;;;;;;;;;;;;;;18.85;54.75;101715.50;2249346;78;51796;-74
2023/01/29 10:09:43;;;;;;;;;;;;;;;18.79;54.81;101707.27;2285467;78;50131;-75
2023/01/29 10:12:55;;;;;;;;;;;;;;;18.76;54.83;101720.48;2281940;77;50261;-74
2023/01/29 10:16:15;;;;;;;;;;;;;;;18.75;54.81;101710.74;2295750;76;50272;-73
2023/01/29 10:19:21;;;;;;;;;;;;;;;18.68;55.00;101702.48;2285998;77;51060;-75
2023/01/29 10:22:34;;;;;;;;;;;;;;;18.64;55.16;101696.24;2259572;78;51846;-75
2023/01/29 10:25:36;;;;;;;;;;;;;;;18.63;55.13;101680.66;2281859;78;51867;-74
2023/01/29 10:28:46;;;;;;;;;;;;;;;18.68;55.01;101692.27;2281390;78;51551;-75
2023/01/29 10:35:14;;;;;;;;;;;;;;;18.80;54.71;101704.41;2287230;76;22505;-74
2023/01/29 10:38:21;;;;;;;;;;;;;;;18.87;54.97;101710.82;2280904;78;50413;-74
2023/01/29 10:41:39;;;;;;;;;;;;;;;18.91;55.17;101709.52;2281248;78;51505;-74
2023/01/29 10:44:43;;;;;;;;;;;;;;;18.96;55.54;101706.36;2217984;79;50843;-74
2023/01/29 10:47:46;;;;;;;;;;;;;;;18.92;55.96;101699.12;2286376;77;50843;-75
2023/01/29 10:50:56;;;;;;;;;;;;;;;18.90;56.25;101689.55;2313785;76;50779;-75
2023/01/29 10:53:59;;;;;;;;;;;;;;;18.84;56.49;101685.67;2313610;77;50076;-75
2023/01/29 10:57:05;;;;;;;;;;;;;;;18.76;56.80;101685.63;2313828;76;49953;-75
2023/01/29 11:00:23;;;;;;;;;;;;;;;18.70;57.04;101675.02;2291234;77;50971;-75
2023/01/29 11:03:25;;;;;;;;;;;;;;;18.66;57.07;101683.53;2305143;77;50682;-75
2023/01/29 11:06:34;;;;;;;;;;;;;;;18.66;57.20;101657.55;2317657;76;50673;-75
2023/01/29 11:09:37;;;;;;;;;;;;;;;18.70;57.22;101648.68;2313336;77;51467;-74
2023/01/29 11:12:39;;;;;;;;;;;;;;;18.78;56.99;101650.13;2304968;76;49698;-75
2023/01/29 11:15:40;;;;;;;;;;;;;;;18.85;56.75;101651.14;2304750;76;50324;-74
2023/01/29 11:18:49;;;;;;;;;;;;;;;18.91;56.64;101649.68;2313656;77;50275;-74
2023/01/29 11:21:52;;;;;;;;;;;;;;;18.92;56.59;101641.97;2313718;77;51530;-74
2023/01/29 11:25:08;;;;;;;;;;;;;;;18.85;56.83;101641.75;2285663;76;51611;-75
2023/01/29 11:28:10;;;;;;;;;;;;;;;18.81;56.69;101629.69;2297786;77;52620;-75
2023/01/29 11:31:22;;;;;;;;;;;;;;;18.74;56.74;101632.63;2291852;77;51602;-75
2023/01/29 11:34:26;;;;;;;;;;;;;;;18.68;57.27;101627.92;2292574;77;50479;-75
2023/01/29 11:37:31;;;;;;;;;;;;;;;18.62;57.52;101618.65;2302701;77;50306;-75
2023/01/29 11:40:35;;;;;;;;;;;;;;;18.57;57.62;101624.16;2302757;77;50869;-75
2023/01/29 11:43:37;;;;;;;;;;;;;;;18.58;57.57;101618.64;2292550;77;51707;-73
2023/01/29 11:46:39;;;;;;;;;;;;;;;18.59;57.65;101610.94;2303339;77;51456;-75
2023/01/29 11:49:42;;;;;;;;;;;;;;;18.67;57.61;101604.27;2317776;76;50966;-75
2023/01/29 11:52:43;;;;;;;;;;;;;;;18.72;57.44;101596.58;2313617;77;51573;-74
2023/01/29 11:55:45;;;;;;;;;;;;;;;18.79;57.23;101595.48;2313841;77;51449;-74
2023/01/29 11:58:47;;;;;;;;;;;;;;;18.83;57.08;101594.17;2311419;76;50709;-75
2023/01/29 12:01:48;;;;;;;;;;;;;;;18.87;56.91;101584.78;2262163;77;52741;-75
2023/01/29 12:04:50;;;;;;;;;;;;;;;18.85;56.87;101589.46;2306897;76;50936;-75
2023/01/29 12:07:53;;;;;;;;;;;;;;;18.82;56.92;101581.75;2307292;77;50094;-75
2023/01/29 12:10:56;;;;;;;;;;;;;;;18.78;56.99;101570.16;2313391;76;50045;-75
2023/01/29 12:13:59;;;;;;;;;;;;;;;18.74;57.00;101572.81;2263097;77;51342;-75
2023/01/29 12:17:02;;;;;;;;;;;;;;;18.66;57.17;101567.75;2281068;78;50365;-74
2023/01/29 12:20:06;;;;;;;;;;;;;;;18.61;57.23;101555.33;2273583;76;50369;-75
2023/01/29 12:23:12;;;;;;;;;;;;;;;18.58;57.15;101546.78;2299460;76;50719;-74
2023/01/29 12:26:24;;;;;;;;;;;;;;;18.53;57.04;101539.72;2259054;77;50101;-74
2023/01/29 12:29:46;;;;;;;;;;;;;;;18.54;57.07;101544.91;2314310;76;51564;-75
2023/01/29 12:32:53;;;;;;;;;;;;;;;18.61;56.85;101545.11;2318431;76;50694;-75
2023/01/29 12:35:56;;;;;;;;;;;;;;;18.62;56.85;101535.55;2320017;76;50493;-73
2023/01/29 12:38:58;;;;;;;;;;;;;;;18.58;57.03;101535.55;2286142;76;49659;-74
2023/01/29 12:42:03;;;;;;;;;;;;;;;18.68;56.83;101533.59;2318703;76;50034;-74
2023/01/29 12:45:06;;;;;;;;;;;;;;;18.79;56.56;101512.36;2298425;76;51553;-74
2023/01/29 12:48:09;;;;;;;;;;;;;;;18.85;56.37;101510.36;2314267;76;51670;-74
2023/01/29 12:51:11;;;;;;;;;;;;;;;18.83;55.85;101503.00;2267794;78;51048;-74
2023/01/29 12:54:14;;;;;;;;;;;;;;;18.83;55.77;101515.55;2279807;78;50354;-73
2023/01/29 12:57:23;;;;;;;;;;;;;;;18.78;55.79;101502.66;2281163;78;50439;-74
2023/01/29 13:00:35;;;;;;;;;;;;;;;18.77;55.77;101504.14;2280029;78;51585;-74
2023/01/29 13:03:57;;;;;;;;;;;;;;;18.71;55.84;101512.31;2251453;76;52415;-74
2023/01/29 13:07:03;;;;;;;;;;;;;;;18.66;55.92;101515.98;2234601;78;51229;-74
2023/01/29 13:10:06;;;;;;;;;;;;;;;18.60;55.99;101511.25;2247561;78;50469;-74
2023/01/29 13:13:15;;;;;;;;;;;;;;;18.54;56.16;101507.89;2218767;78;50339;-72
2023/01/29 13:16:21;;;;;;;;;;;;;;;18.58;56.30;101504.73;2211508;79;51412;-74
2023/01/29 13:19:36;;;;;;;;;;;;;;;18.64;56.23;101508.59;2236968;79;22354;-72
2023/01/29 13:22:39;;;;;;;;;;;;;;;18.70;56.13;101491.37;2226517;79;50428;-72
2023/01/29 13:25:40;;;;;;;;;;;;;;;18.79;56.07;101489.58;2199865;79;51615;-73
2023/01/29 13:28:42;;;;;;;;;;;;;;;18.85;55.98;101490.25;2244314;78;51226;-73
2023/01/29 13:31:45;;;;;;;;;;;;;;;18.89;55.85;101485.41;2236558;78;50264;-74
2023/01/29 13:34:46;;;;;;;;;;;;;;;18.89;55.70;101485.41;2240537;78;51617;-74
2023/01/29 13:37:53;;;;;;;;;;;;;;;18.86;55.93;101487.92;2256766;77;50463;-73
2023/01/29 13:40:59;;;;;;;;;;;;;;;18.83;56.21;101488.25;2289773;77;52331;-72
2023/01/29 13:44:00;;;;;;;;;;;;;;;18.78;56.54;101487.91;2294456;76;51544;-74
2023/01/29 13:47:04;;;;;;;;;;;;;;;18.74;56.84;101472.27;2300862;76;50263;-73
2023/01/29 13:50:07;;;;;;;;;;;;;;;18.69;57.06;101482.97;2302382;76;50353;-71
2023/01/29 13:53:08;;;;;;;;;;;;;;;18.61;57.37;101474.08;2255555;78;49899;-72
2023/01/29 13:56:28;;;;;;;;;;;;;;;18.60;57.59;101475.93;2286218;76;51582;-72
2023/01/29 13:59:50;;;;;;;;;;;;;;;18.60;58.00;101480.42;2302957;77;50447;-72
2023/01/29 14:02:57;;;;;;;;;;;;;;;18.65;57.93;101478.09;2297784;77;51552;-72
2023/01/29 14:05:59;;;;;;;;;;;;;;;18.71;57.97;101478.30;2255116;76;51428;-72
2023/01/29 14:09:00;;;;;;;;;;;;;;;18.78;57.81;101469.14;2293385;76;50785;-71
2023/01/29 14:12:02;;;;;;;;;;;;;;;18.85;57.73;101462.09;2282021;78;51400;-72
2023/01/29 14:15:05;;;;;;;;;;;;;;;18.93;57.71;101468.84;2283549;76;50695;-72
2023/01/29 14:18:15;;;;;;;;;;;;;;;18.99;57.51;101457.11;2249025;77;49997;-73
2023/01/29 14:21:18;;;;;;;;;;;;;;;18.99;57.44;101461.13;2281526;77;51568;-73
2023/01/29 14:24:21;;;;;;;;;;;;;;;18.89;56.89;101453.23;2281246;78;51668;-72
2023/01/29 14:27:24;;;;;;;;;;;;;;;18.79;56.76;101450.70;2281367;78;51558;-73
2023/01/29 14:30:26;;;;;;;;;;;;;;;18.70;56.92;101448.95;2279853;76;52594;-72
2023/01/29 14:33:28;;;;;;;;;;;;;;;18.62;57.25;101456.48;2320171;76;51480;-75
2023/01/29 14:36:30;;;;;;;;;;;;;;;18.54;57.81;101460.48;2286245;76;50311;-74
2023/01/29 14:39:36;;;;;;;;;;;;;;;18.48;57.83;101450.42;2286854;76;51524;-76
2023/01/29 14:42:51;;;;;;;;;;;;;;;18.45;58.08;101448.91;2276872;76;49235;-75
2023/01/29 14:45:53;;;;;;;;;;;;;;;18.52;57.91;101445.56;2308748;77;50923;-75
2023/01/29 14:48:55;;;;;;;;;;;;;;;18.61;57.74;101443.26;2315176;77;50397;-74
2023/01/29 14:51:58;;;;;;;;;;;;;;;18.66;57.66;101444.44;2288973;76;50717;-75
2023/01/29 14:55:00;;;;;;;;;;;;;;;18.78;57.33;101438.31;2250072;78;22479;-73
2023/01/29 14:58:02;;;;;;;;;;;;;;;18.84;57.20;101428.76;2293472;77;51489;-74
2023/01/29 15:01:04;;;;;;;;;;;;;;;18.84;57.48;101428.25;2315041;77;50726;-75
2023/01/29 15:04:07;;;;;;;;;;;;;;;18.89;57.31;101423.73;2315007;77;50330;-74
2023/01/29 15:07:13;;;;;;;;;;;;;;;18.91;57.31;101418.55;2319211;76;52513;-75
2023/01/29 15:10:22;;;;;;;;;;;;;;;18.99;57.21;101423.59;2315036;76;50765;-74
2023/01/29 15:13:25;;;;;;;;;;;;;;;19.01;57.08;101416.19;2314923;77;50788;-74
2023/01/29 15:16:28;;;;;;;;;;;;;;;18.94;57.23;101416.03;2314604;77;50685;-73
2023/01/29 15:19:47;;;;;;;;;;;;;;;18.87;57.48;101418.52;2314544;76;50908;-73
2023/01/29 15:22:46;;;;;;;;;;;;;;;18.79;57.63;101411.82;2315174;76;22431;-74
2023/01/29 15:25:49;;;;;;;;;;;;;;;18.72;57.91;101404.89;2315146;77;50397;-73
2023/01/29 15:28:55;;;;;;;;;;;;;;;18.64;58.12;101405.40;2314851;77;50715;-74
2023/01/29 15:31:57;;;;;;;;;;;;;;;18.59;58.25;101395.67;2290156;77;50227;-74
2023/01/29 15:34:59;;;;;;;;;;;;;;;18.58;58.48;101391.33;2315132;77;50336;-73
2023/01/29 15:38:17;;;;;;;;;;;;;;;18.55;58.44;101387.13;2315018;77;51776;-73
2023/01/29 15:41:20;;;;;;;;;;;;;;;18.56;58.44;101386.63;2314747;77;50785;-73
2023/01/29 15:44:21;;;;;;;;;;;;;;;18.60;58.43;101378.58;2296220;76;49631;-74
2023/01/29 15:47:25;;;;;;;;;;;;;;;18.64;58.30;101379.94;2284236;77;51597;-73
2023/01/29 15:50:26;;;;;;;;;;;;;;;18.70;58.17;101375.23;2281985;78;50715;-73
2023/01/29 15:53:29;;;;;;;;;;;;;;;18.74;58.12;101381.12;2281943;78;51547;-73
2023/01/29 15:56:36;;;;;;;;;;;;;;;18.79;58.02;101370.77;2249820;78;52583;-73
2023/01/29 15:59:38;;;;;;;;;;;;;;;18.83;57.87;101370.28;2282005;78;51639;-73
2023/01/29 16:02:40;;;;;;;;;;;;;;;18.90;57.73;101371.77;2281949;78;50466;-73
2023/01/29 16:05:42;;;;;;;;;;;;;;;18.88;57.67;101367.94;2282227;78;51464;-74
2023/01/29 16:08:44;;;;;;;;;;;;;;;18.84;57.77;101356.36;2249243;78;51142;-73
2023/01/29 16:11:46;;;;;;;;;;;;;;;18.78;57.87;101359.22;2282229;78;50734;-73
2023/01/29 16:14:48;;;;;;;;;;;;;;;18.74;58.02;101358.34;2292479;77;51468;-72
2023/01/29 16:17:50;;;;;;;;;;;;;;;18.68;58.06;101350.47;2281806;78;50426;-72
2023/01/29 16:20:53;;;;;;;;;;;;;;;18.62;58.34;101344.41;2249081;78;52400;-74